»·PEaware :: N333ZS KBUR-KSNA

N333ZS :: KBUR-KSNA

FLIGHT INFORMATION

Flight Status: Arrived
Operator: Privately registered:
United States
More flights under this callsign
Pilot: Judd H. (29974)
Aircraft: CESSNA 182 SKYLANE
(C182)
More flights by this aircraft type
Origin: KBUR Bob Hope-Burbank
United States
Destination: KSNA John Wayne-Orange Co
United States
More flights between these airports :: More routes between these airports
Route: BURP21
File this flight plan on PilotEdge
Remarks:
Altitude:
(Current/Filed)
4,000ft
Speed:
(Current/Filed)
120kts
Departed: 13-Oct-20 03:04 AM
Arrived: 13-Oct-20 03:47 AM
Distance/Time
Traveled:
74nm/0:43
Distance/Time
To Go:
Arrived

Flight Plot

Page will automatically refresh every two minutes.

Flight plan parsing failed; only flown route is shown


Map Options




Map Legend


Flown Route
Filed Route
Departure Airport
Arrival Airport
Navaid (VOR, NDB)
Fix

Horizontal Profiles

Position Reports

Time Latitude Longitude Heading Altitude Ground
Speed
13-Oct-20 02:58 34.201432 -118.359206 253 724ft 0kts
13-Oct-20 02:59 34.201702 -118.359508 6 724ft 9kts
13-Oct-20 03:00 34.205955 -118.359663 55 724ft 0kts
13-Oct-20 03:01 34.205956 -118.359661 55 724ft 0kts
13-Oct-20 03:02 34.205996 -118.359586 60 724ft 8kts
13-Oct-20 03:03 34.193152 -118.350103 177 1176ft 97kts
13-Oct-20 03:04 34.177248 -118.381277 277 1821ft 129kts
13-Oct-20 03:05 34.200337 -118.411834 309 2356ft 126kts
13-Oct-20 03:06 34.215894 -118.449966 285 2749ft 126kts
13-Oct-20 03:07 34.221238 -118.491418 285 3163ft 125kts
13-Oct-20 03:08 34.241516 -118.525038 317 3526ft 126kts
13-Oct-20 03:09 34.265768 -118.555751 313 3890ft 127kts
13-Oct-20 03:10 34.296902 -118.570226 34 4005ft 142kts
13-Oct-20 03:11 34.326662 -118.537761 48 4021ft 145kts
13-Oct-20 03:12 34.326363 -118.497828 142 4007ft 141kts
13-Oct-20 03:13 34.292354 -118.474316 151 4017ft 141kts
13-Oct-20 03:14 34.259566 -118.447990 147 4020ft 142kts
13-Oct-20 03:15 34.226933 -118.420836 147 4021ft 142kts
13-Oct-20 03:16 34.194380 -118.393800 147 4020ft 142kts
13-Oct-20 03:17 34.161766 -118.366759 147 4020ft 142kts
13-Oct-20 03:18 34.134029 -118.348436 149 4161ft 155kts
13-Oct-20 03:19 34.102475 -118.316453 142 3999ft 145kts
13-Oct-20 03:20 34.084662 -118.274355 109 3991ft 145kts
13-Oct-20 03:21 34.072853 -118.227736 109 3981ft 145kts
13-Oct-20 03:22 34.060812 -118.181520 112 3973ft 139kts
13-Oct-20 03:24 34.047221 -118.138730 112 3975ft 136kts
13-Oct-20 03:25 34.033866 -118.096051 112 3973ft 135kts
13-Oct-20 03:26 34.020540 -118.053513 111 3973ft 135kts
13-Oct-20 03:27 34.007258 -118.010858 112 3971ft 135kts
13-Oct-20 03:28 33.994544 -117.968111 110 3972ft 136kts
13-Oct-20 03:29 33.981569 -117.925017 112 3970ft 136kts
13-Oct-20 03:30 33.968733 -117.882170 112 3971ft 135kts
13-Oct-20 03:31 33.958074 -117.849099 113 3971ft 136kts
13-Oct-20 03:32 33.944237 -117.806692 109 3970ft 136kts
13-Oct-20 03:33 33.932695 -117.763322 115 3996ft 134kts
13-Oct-20 03:34 33.922368 -117.720755 81 3961ft 131kts
13-Oct-20 03:35 33.949479 -117.718082 337 3904ft 125kts
13-Oct-20 03:36 33.971015 -117.698242 112 3653ft 137kts
13-Oct-20 03:37 33.938960 -117.700359 206 3349ft 131kts
13-Oct-20 03:38 33.909698 -117.719106 203 3316ft 111kts
13-Oct-20 03:39 33.883220 -117.738513 208 3269ft 110kts
13-Oct-20 03:39 33.860245 -117.751798 209 3249ft 109kts
13-Oct-20 03:41 33.828749 -117.771361 207 3212ft 109kts
13-Oct-20 03:41 33.805026 -117.786652 209 2827ft 125kts
13-Oct-20 03:42 33.775550 -117.805361 209 2161ft 110kts
13-Oct-20 03:44 33.744332 -117.825190 208 1477ft 108kts
13-Oct-20 03:44 33.721965 -117.839513 210 1099ft 116kts
13-Oct-20 03:45 33.693791 -117.857388 208 354ft 102kts
13-Oct-20 03:46 33.675420 -117.869062 236 59ft 0kts
13-Oct-20 03:47 33.676032 -117.871825 224 59ft 0kts
13-Oct-20 03:48 34.423508 -119.835828 0 13ft 0kts
13-Oct-20 03:49 34.423508 -119.835828 0 13ft 0kts
13-Oct-20 03:50 34.423508 -119.835828 0 13ft 0kts
13-Oct-20 03:51 34.423508 -119.835828 0 13ft 0kts
13-Oct-20 03:52 34.423508 -119.835828 0 13ft 0kts
13-Oct-20 03:53 34.423508 -119.835828 0 13ft 0kts
13-Oct-20 03:54 34.423508 -119.835828 0 13ft 0kts
13-Oct-20 03:55 34.423508 -119.835828 0 13ft 0kts
13-Oct-20 03:56 34.423508 -119.835828 0 13ft 0kts
13-Oct-20 03:57 34.423508 -119.835828 0 13ft 0kts
13-Oct-20 03:58 34.423508 -119.835828 0 13ft 0kts
13-Oct-20 03:59 34.423508 -119.835828 0 13ft 0kts
13-Oct-20 04:00 34.423508 -119.835828 0 13ft 0kts

Navigation Log

Ident Type
Flight plan parsing failed, navigation log unavailable